Kezdőlap
METAR-TAF:

METAR-TAF

Repülőterek :

Wallis, Franciaország

földrajzi szélesség: 13-14S, földrajzi hosszúság: 176-10W, magasság: 23 m

METAR: hiányzik

Idő: 16:28 (04:28 UTC)

Előrejelzés

A jelentés 5 órával és 28 perccel ezelõtt készült, 23:00 UTC
Az előrejelzés 10-én 00 óra UTC és 10-én 24 óra UTC között érvényes
Délkeleti szél 12 kt
Látótávolság 10 km, vagy több
Szórványos felhőzet 2200 lábon
Szakadozott felhőzet 3400 lábon
10-én 00 óra UTC és 10-én 08 óra UTC között ideiglenes
Látótávolság: 3000 m
Szakadozott felhőzet 1200 lábon
Szórványos felhőzet 2000 lábon, Cumulonimbus.
zivatar, esõ
Valószínűség 30% :
10-én 08 óra UTC és 10-én 24 óra UTC között ideiglenes
Szórványos felhőzet 2000 lábon, Tornyos gomolyfelhő.
záporok

TAF: NLWW 092300Z 1000/1024 13012KT 9999 SCT022 BKN034 TEMPO 1000/1008 3000 TSRA BKN012 SCT020CB PROB30 TEMPO 1008/1024 SHRA SCT020TCU

Meteorológiai megfigyelések és előrejelzések több, mint 4000 repülőtéren (METAR és TAF jelentéseket).

A térképen piros és sárga pontok jelzik az elérhető meteorológiai állomásokat.

Mozgassa az egeret a pont fölött, hogy megjelenjen az állomás neve.

Azután kattintson az időjárási megfigyelések és előrejelzések megtekintéséhez.

A térkép megváltoztatása: kattintson a fekete keresztel jelölt zöld gombra ráközelítéshez, a vonallal jelölt zöld gombra távolításhoz, vagy a zöld nyilakra a szomszédos térképek eléréséhez.


METAR-TAF: